sensor_id;sensor_type;location;lat;lon;timestamp;temperature;humidity
24049;DHT22;12250;50.956;4.746;2022-12-07T00:01:36;5.50;99.90
24049;DHT22;12250;50.956;4.746;2022-12-07T00:04:04;5.40;99.90
24049;DHT22;12250;50.956;4.746;2022-12-07T00:08:57;5.30;99.90
24049;DHT22;12250;50.956;4.746;2022-12-07T00:11:23;5.30;99.90
24049;DHT22;12250;50.956;4.746;2022-12-07T00:13:55;5.20;99.90
24049;DHT22;12250;50.956;4.746;2022-12-07T00:16:23;5.10;99.90
24049;DHT22;12250;50.956;4.746;2022-12-07T00:18:49;5.10;99.90
24049;DHT22;12250;50.956;4.746;2022-12-07T00:21:49;5.10;99.90
24049;DHT22;12250;50.956;4.746;2022-12-07T00:24:09;5.10;99.90
24049;DHT22;12250;50.956;4.746;2022-12-07T00:26:37;5.10;99.90
24049;DHT22;12250;50.956;4.746;2022-12-07T00:29:26;5.00;99.90
24049;DHT22;12250;50.956;4.746;2022-12-07T00:31:50;5.00;99.90
24049;DHT22;12250;50.956;4.746;2022-12-07T00:34:20;4.80;99.90
24049;DHT22;12250;50.956;4.746;2022-12-07T00:36:46;4.70;99.90
24049;DHT22;12250;50.956;4.746;2022-12-07T00:39:12;4.80;99.90
24049;DHT22;12250;50.956;4.746;2022-12-07T00:41:38;4.80;99.90
24049;DHT22;12250;50.956;4.746;2022-12-07T00:44:04;4.90;99.90
24049;DHT22;12250;50.956;4.746;2022-12-07T00:46:30;4.80;99.90
24049;DHT22;12250;50.956;4.746;2022-12-07T00:48:56;4.90;99.90
24049;DHT22;12250;50.956;4.746;2022-12-07T00:51:23;4.90;99.90
24049;DHT22;12250;50.956;4.746;2022-12-07T00:53:49;5.00;99.90
24049;DHT22;12250;50.956;4.746;2022-12-07T00:56:21;5.10;99.90
24049;DHT22;12250;50.956;4.746;2022-12-07T00:59:01;5.10;99.90
24049;DHT22;12250;50.956;4.746;2022-12-07T01:01:30;5.10;99.90
24049;DHT22;12250;50.956;4.746;2022-12-07T01:03:55;5.20;99.90
24049;DHT22;12250;50.956;4.746;2022-12-07T01:06:22;5.10;99.90
24049;DHT22;12250;50.956;4.746;2022-12-07T01:08:49;5.10;99.90
24049;DHT22;12250;50.956;4.746;2022-12-07T01:11:18;5.10;99.90
24049;DHT22;12250;50.956;4.746;2022-12-07T01:13:44;5.10;99.90
24049;DHT22;12250;50.956;4.746;2022-12-07T01:16:13;5.00;99.90
24049;DHT22;12250;50.956;4.746;2022-12-07T01:18:40;5.00;99.90
24049;DHT22;12250;50.956;4.746;2022-12-07T01:21:14;5.10;99.90
24049;DHT22;12250;50.956;4.746;2022-12-07T01:23:40;5.00;99.90
24049;DHT22;12250;50.956;4.746;2022-12-07T01:26:10;5.10;99.90
24049;DHT22;12250;50.956;4.746;2022-12-07T01:28:36;5.10;99.90
24049;DHT22;12250;50.956;4.746;2022-12-07T01:31:07;5.10;99.90
24049;DHT22;12250;50.956;4.746;2022-12-07T01:33:35;5.20;99.90
24049;DHT22;12250;50.956;4.746;2022-12-07T01:38:29;5.40;99.90
24049;DHT22;12250;50.956;4.746;2022-12-07T01:40:55;5.40;99.90
24049;DHT22;12250;50.956;4.746;2022-12-07T01:43:22;5.40;99.90
24049;DHT22;12250;50.956;4.746;2022-12-07T01:45:49;5.50;99.90
24049;DHT22;12250;50.956;4.746;2022-12-07T01:48:16;5.50;99.90
24049;DHT22;12250;50.956;4.746;2022-12-07T01:50:45;5.40;99.90
24049;DHT22;12250;50.956;4.746;2022-12-07T01:53:13;5.50;99.90
24049;DHT22;12250;50.956;4.746;2022-12-07T01:55:42;5.50;99.90
24049;DHT22;12250;50.956;4.746;2022-12-07T01:58:10;5.50;99.90
24049;DHT22;12250;50.956;4.746;2022-12-07T02:00:36;5.50;99.90
24049;DHT22;12250;50.956;4.746;2022-12-07T02:03:09;5.50;99.90
24049;DHT22;12250;50.956;4.746;2022-12-07T02:05:38;5.60;99.90
24049;DHT22;12250;50.956;4.746;2022-12-07T02:08:05;5.70;99.90
24049;DHT22;12250;50.956;4.746;2022-12-07T02:10:32;5.60;99.90
24049;DHT22;12250;50.956;4.746;2022-12-07T02:23:41;5.20;99.90
24049;DHT22;12250;50.956;4.746;2022-12-07T02:31:33;5.00;99.90
24049;DHT22;12250;50.956;4.746;2022-12-07T02:34:12;4.90;99.90
24049;DHT22;12250;50.956;4.746;2022-12-07T02:36:45;4.90;99.90
24049;DHT22;12250;50.956;4.746;2022-12-07T02:39:15;4.90;99.90
24049;DHT22;12250;50.956;4.746;2022-12-07T02:41:54;4.90;99.90
24049;DHT22;12250;50.956;4.746;2022-12-07T02:44:24;5.00;99.90
24049;DHT22;12250;50.956;4.746;2022-12-07T02:47:01;5.00;99.90
24049;DHT22;12250;50.956;4.746;2022-12-07T02:49:29;5.00;99.90
24049;DHT22;12250;50.956;4.746;2022-12-07T02:51:55;5.00;99.90
24049;DHT22;12250;50.956;4.746;2022-12-07T02:54:21;5.10;99.90
24049;DHT22;12250;50.956;4.746;2022-12-07T02:56:50;5.20;99.90
24049;DHT22;12250;50.956;4.746;2022-12-07T03:05:15;5.10;99.90
24049;DHT22;12250;50.956;4.746;2022-12-07T03:13:35;5.00;99.90
24049;DHT22;12250;50.956;4.746;2022-12-07T03:16:12;5.00;99.90
24049;DHT22;12250;50.956;4.746;2022-12-07T03:19:17;5.10;99.90
24049;DHT22;12250;50.956;4.746;2022-12-07T03:21:44;5.10;99.90
24049;DHT22;12250;50.956;4.746;2022-12-07T03:24:17;5.10;99.90
24049;DHT22;12250;50.956;4.746;2022-12-07T03:27:12;5.10;99.90
24049;DHT22;12250;50.956;4.746;2022-12-07T03:29:48;5.00;99.90
24049;DHT22;12250;50.956;4.746;2022-12-07T03:32:24;4.90;99.90
24049;DHT22;12250;50.956;4.746;2022-12-07T03:35:05;4.80;99.90
24049;DHT22;12250;50.956;4.746;2022-12-07T03:40:19;4.90;99.90
24049;DHT22;12250;50.956;4.746;2022-12-07T03:42:48;4.90;99.90
24049;DHT22;12250;50.956;4.746;2022-12-07T03:45:15;4.90;99.90
24049;DHT22;12250;50.956;4.746;2022-12-07T03:48:02;5.00;99.90
24049;DHT22;12250;50.956;4.746;2022-12-07T03:50:53;5.00;99.90
24049;DHT22;12250;50.956;4.746;2022-12-07T03:53:29;5.00;99.90
24049;DHT22;12250;50.956;4.746;2022-12-07T03:55:59;5.00;99.90
24049;DHT22;12250;50.956;4.746;2022-12-07T03:58:25;5.10;99.90
24049;DHT22;12250;50.956;4.746;2022-12-07T04:00:51;5.00;99.90
24049;DHT22;12250;50.956;4.746;2022-12-07T04:03:17;4.90;99.90
24049;DHT22;12250;50.956;4.746;2022-12-07T04:05:43;4.80;99.90
24049;DHT22;12250;50.956;4.746;2022-12-07T04:08:09;4.80;99.90
24049;DHT22;12250;50.956;4.746;2022-12-07T04:10:35;4.70;99.90
24049;DHT22;12250;50.956;4.746;2022-12-07T04:13:00;4.60;99.90
24049;DHT22;12250;50.956;4.746;2022-12-07T04:15:26;4.40;99.90
24049;DHT22;12250;50.956;4.746;2022-12-07T04:17:52;4.30;99.90
24049;DHT22;12250;50.956;4.746;2022-12-07T04:20:17;4.10;99.90
24049;DHT22;12250;50.956;4.746;2022-12-07T04:22:43;4.00;99.90
24049;DHT22;12250;50.956;4.746;2022-12-07T04:25:09;3.80;99.90
24049;DHT22;12250;50.956;4.746;2022-12-07T04:27:34;3.70;99.90
24049;DHT22;12250;50.956;4.746;2022-12-07T04:30:00;3.70;99.90
24049;DHT22;12250;50.956;4.746;2022-12-07T04:32:26;3.60;99.90
24049;DHT22;12250;50.956;4.746;2022-12-07T04:34:52;3.50;99.90
24049;DHT22;12250;50.956;4.746;2022-12-07T04:37:17;3.50;99.90
24049;DHT22;12250;50.956;4.746;2022-12-07T04:39:43;3.50;99.90
24049;DHT22;12250;50.956;4.746;2022-12-07T04:42:10;3.50;99.90
24049;DHT22;12250;50.956;4.746;2022-12-07T04:44:38;3.60;99.90
24049;DHT22;12250;50.956;4.746;2022-12-07T04:47:03;3.60;99.90
24049;DHT22;12250;50.956;4.746;2022-12-07T04:49:29;3.70;99.90
24049;DHT22;12250;50.956;4.746;2022-12-07T04:51:55;3.70;99.90
24049;DHT22;12250;50.956;4.746;2022-12-07T04:54:21;3.70;99.90
24049;DHT22;12250;50.956;4.746;2022-12-07T04:56:46;3.60;99.90
24049;DHT22;12250;50.956;4.746;2022-12-07T04:59:14;3.50;99.90
24049;DHT22;12250;50.956;4.746;2022-12-07T05:01:40;3.40;99.90
24049;DHT22;12250;50.956;4.746;2022-12-07T05:04:06;3.30;99.90
24049;DHT22;12250;50.956;4.746;2022-12-07T05:06:31;3.20;99.90
24049;DHT22;12250;50.956;4.746;2022-12-07T05:08:57;3.20;99.90
24049;DHT22;12250;50.956;4.746;2022-12-07T05:11:23;3.10;99.90
24049;DHT22;12250;50.956;4.746;2022-12-07T05:14:07;3.10;99.90
24049;DHT22;12250;50.956;4.746;2022-12-07T05:16:34;3.20;99.90
24049;DHT22;12250;50.956;4.746;2022-12-07T05:19:00;3.30;99.90
24049;DHT22;12250;50.956;4.746;2022-12-07T05:21:25;3.30;99.90
24049;DHT22;12250;50.956;4.746;2022-12-07T05:23:51;3.40;99.90
24049;DHT22;12250;50.956;4.746;2022-12-07T05:26:17;3.60;99.90
24049;DHT22;12250;50.956;4.746;2022-12-07T05:28:43;3.70;99.90
24049;DHT22;12250;50.956;4.746;2022-12-07T05:31:09;3.70;99.90
24049;DHT22;12250;50.956;4.746;2022-12-07T05:33:34;3.70;99.90
24049;DHT22;12250;50.956;4.746;2022-12-07T05:36:00;3.80;99.90
24049;DHT22;12250;50.956;4.746;2022-12-07T05:38:31;3.90;99.90
24049;DHT22;12250;50.956;4.746;2022-12-07T05:41:08;4.00;99.90
24049;DHT22;12250;50.956;4.746;2022-12-07T05:43:55;4.00;99.90
24049;DHT22;12250;50.956;4.746;2022-12-07T05:46:20;3.90;99.90
24049;DHT22;12250;50.956;4.746;2022-12-07T05:48:46;4.00;99.90
24049;DHT22;12250;50.956;4.746;2022-12-07T05:51:11;4.00;99.90
24049;DHT22;12250;50.956;4.746;2022-12-07T05:53:37;4.00;99.90
24049;DHT22;12250;50.956;4.746;2022-12-07T05:56:03;4.00;99.90
24049;DHT22;12250;50.956;4.746;2022-12-07T05:58:28;4.00;99.90
24049;DHT22;12250;50.956;4.746;2022-12-07T06:01:12;4.00;99.90
24049;DHT22;12250;50.956;4.746;2022-12-07T06:03:38;4.00;99.90
24049;DHT22;12250;50.956;4.746;2022-12-07T06:06:04;3.90;99.90
24049;DHT22;12250;50.956;4.746;2022-12-07T06:08:29;3.90;99.90
24049;DHT22;12250;50.956;4.746;2022-12-07T06:10:55;3.90;99.90
24049;DHT22;12250;50.956;4.746;2022-12-07T06:13:39;3.90;99.90
24049;DHT22;12250;50.956;4.746;2022-12-07T06:16:05;3.90;99.90
24049;DHT22;12250;50.956;4.746;2022-12-07T06:18:31;4.00;99.90
24049;DHT22;12250;50.956;4.746;2022-12-07T06:20:56;4.00;99.90
24049;DHT22;12250;50.956;4.746;2022-12-07T06:23:22;4.10;99.90
24049;DHT22;12250;50.956;4.746;2022-12-07T06:25:48;4.10;99.90
24049;DHT22;12250;50.956;4.746;2022-12-07T06:28:13;4.20;99.90
24049;DHT22;12250;50.956;4.746;2022-12-07T06:30:39;4.20;99.90
24049;DHT22;12250;50.956;4.746;2022-12-07T06:33:05;4.10;99.90
24049;DHT22;12250;50.956;4.746;2022-12-07T06:35:32;4.10;99.90
24049;DHT22;12250;50.956;4.746;2022-12-07T06:37:58;4.10;99.90
24049;DHT22;12250;50.956;4.746;2022-12-07T06:40:24;4.10;99.90
24049;DHT22;12250;50.956;4.746;2022-12-07T06:42:50;4.10;99.90
24049;DHT22;12250;50.956;4.746;2022-12-07T06:45:15;4.10;99.90
24049;DHT22;12250;50.956;4.746;2022-12-07T06:47:41;4.10;99.90
24049;DHT22;12250;50.956;4.746;2022-12-07T06:50:07;4.20;99.90
24049;DHT22;12250;50.956;4.746;2022-12-07T06:52:33;4.20;99.90
24049;DHT22;12250;50.956;4.746;2022-12-07T06:54:59;4.20;99.90
24049;DHT22;12250;50.956;4.746;2022-12-07T06:57:25;4.20;99.90
24049;DHT22;12250;50.956;4.746;2022-12-07T06:59:51;4.30;99.90
24049;DHT22;12250;50.956;4.746;2022-12-07T07:02:16;4.30;99.90
24049;DHT22;12250;50.956;4.746;2022-12-07T07:04:42;4.30;99.90
24049;DHT22;12250;50.956;4.746;2022-12-07T07:07:08;4.30;99.90
24049;DHT22;12250;50.956;4.746;2022-12-07T07:09:33;4.30;99.90
24049;DHT22;12250;50.956;4.746;2022-12-07T07:11:59;4.40;99.90
24049;DHT22;12250;50.956;4.746;2022-12-07T07:14:28;4.40;99.90
24049;DHT22;12250;50.956;4.746;2022-12-07T07:16:53;4.40;99.90
24049;DHT22;12250;50.956;4.746;2022-12-07T07:19:19;4.40;99.90
24049;DHT22;12250;50.956;4.746;2022-12-07T07:21:44;4.40;99.90
24049;DHT22;12250;50.956;4.746;2022-12-07T07:24:10;4.40;99.90
24049;DHT22;12250;50.956;4.746;2022-12-07T07:26:36;4.40;99.90
24049;DHT22;12250;50.956;4.746;2022-12-07T07:29:01;4.40;99.90
24049;DHT22;12250;50.956;4.746;2022-12-07T07:31:27;4.40;99.90
24049;DHT22;12250;50.956;4.746;2022-12-07T07:33:52;4.30;99.90
24049;DHT22;12250;50.956;4.746;2022-12-07T07:36:18;4.30;99.90
24049;DHT22;12250;50.956;4.746;2022-12-07T07:38:44;4.10;99.90
24049;DHT22;12250;50.956;4.746;2022-12-07T07:41:09;4.10;99.90
24049;DHT22;12250;50.956;4.746;2022-12-07T07:43:35;3.90;99.90
24049;DHT22;12250;50.956;4.746;2022-12-07T07:46:00;3.80;99.90
24049;DHT22;12250;50.956;4.746;2022-12-07T07:48:26;3.70;99.90
24049;DHT22;12250;50.956;4.746;2022-12-07T07:50:52;3.70;99.90
24049;DHT22;12250;50.956;4.746;2022-12-07T07:53:17;3.60;99.90
24049;DHT22;12250;50.956;4.746;2022-12-07T07:55:53;3.60;99.90
24049;DHT22;12250;50.956;4.746;2022-12-07T07:58:19;3.50;99.90
24049;DHT22;12250;50.956;4.746;2022-12-07T08:00:45;3.50;99.90
24049;DHT22;12250;50.956;4.746;2022-12-07T08:03:10;3.50;99.90
24049;DHT22;12250;50.956;4.746;2022-12-07T08:05:37;3.40;99.90
24049;DHT22;12250;50.956;4.746;2022-12-07T08:08:03;3.40;99.90
24049;DHT22;12250;50.956;4.746;2022-12-07T08:10:28;3.40;99.90
24049;DHT22;12250;50.956;4.746;2022-12-07T08:12:54;3.40;99.90
24049;DHT22;12250;50.956;4.746;2022-12-07T08:15:43;3.50;99.90
24049;DHT22;12250;50.956;4.746;2022-12-07T08:18:10;3.60;99.90
24049;DHT22;12250;50.956;4.746;2022-12-07T08:20:36;3.70;99.90
24049;DHT22;12250;50.956;4.746;2022-12-07T08:23:04;3.90;99.90
24049;DHT22;12250;50.956;4.746;2022-12-07T08:25:29;4.10;99.90
24049;DHT22;12250;50.956;4.746;2022-12-07T08:27:56;4.40;99.90
24049;DHT22;12250;50.956;4.746;2022-12-07T08:30:21;4.60;99.90
24049;DHT22;12250;50.956;4.746;2022-12-07T08:32:47;4.80;99.90
24049;DHT22;12250;50.956;4.746;2022-12-07T08:35:13;4.80;99.90
24049;DHT22;12250;50.956;4.746;2022-12-07T08:37:39;4.90;99.90
24049;DHT22;12250;50.956;4.746;2022-12-07T08:40:07;5.00;99.90
24049;DHT22;12250;50.956;4.746;2022-12-07T08:42:33;5.00;99.90
24049;DHT22;12250;50.956;4.746;2022-12-07T08:45:10;5.10;99.90
24049;DHT22;12250;50.956;4.746;2022-12-07T08:47:38;5.10;99.90
24049;DHT22;12250;50.956;4.746;2022-12-07T08:50:07;5.10;99.90
24049;DHT22;12250;50.956;4.746;2022-12-07T08:52:34;5.30;99.90
24049;DHT22;12250;50.956;4.746;2022-12-07T08:55:01;5.40;99.90
24049;DHT22;12250;50.956;4.746;2022-12-07T08:57:28;5.40;99.90
24049;DHT22;12250;50.956;4.746;2022-12-07T08:59:54;5.40;99.90
24049;DHT22;12250;50.956;4.746;2022-12-07T09:02:20;5.30;99.90
24049;DHT22;12250;50.956;4.746;2022-12-07T09:04:45;5.30;99.90
24049;DHT22;12250;50.956;4.746;2022-12-07T09:07:11;5.30;99.90
24049;DHT22;12250;50.956;4.746;2022-12-07T09:09:37;5.20;99.90
24049;DHT22;12250;50.956;4.746;2022-12-07T09:12:03;5.20;99.90
24049;DHT22;12250;50.956;4.746;2022-12-07T09:14:28;5.20;99.90
24049;DHT22;12250;50.956;4.746;2022-12-07T09:16:54;5.20;99.90
24049;DHT22;12250;50.956;4.746;2022-12-07T09:19:20;5.30;99.90
24049;DHT22;12250;50.956;4.746;2022-12-07T09:21:45;5.40;99.90
24049;DHT22;12250;50.956;4.746;2022-12-07T09:24:12;5.60;99.90
24049;DHT22;12250;50.956;4.746;2022-12-07T09:26:38;5.80;99.90
24049;DHT22;12250;50.956;4.746;2022-12-07T09:29:05;6.00;99.90
24049;DHT22;12250;50.956;4.746;2022-12-07T09:31:31;5.90;99.90
24049;DHT22;12250;50.956;4.746;2022-12-07T09:33:58;6.00;99.90
24049;DHT22;12250;50.956;4.746;2022-12-07T09:36:24;6.00;99.90
24049;DHT22;12250;50.956;4.746;2022-12-07T09:38:50;6.10;99.90
24049;DHT22;12250;50.956;4.746;2022-12-07T09:41:16;6.10;99.90
24049;DHT22;12250;50.956;4.746;2022-12-07T09:43:42;6.30;99.90
24049;DHT22;12250;50.956;4.746;2022-12-07T09:46:11;6.60;99.90
24049;DHT22;12250;50.956;4.746;2022-12-07T09:48:39;6.90;99.90
24049;DHT22;12250;50.956;4.746;2022-12-07T09:51:22;7.10;99.90
24049;DHT22;12250;50.956;4.746;2022-12-07T09:53:48;7.20;99.90
24049;DHT22;12250;50.956;4.746;2022-12-07T09:56:16;7.20;99.90
24049;DHT22;12250;50.956;4.746;2022-12-07T09:58:42;7.10;99.90
24049;DHT22;12250;50.956;4.746;2022-12-07T10:03:39;6.90;99.90
24049;DHT22;12250;50.956;4.746;2022-12-07T10:06:06;6.70;99.90
24049;DHT22;12250;50.956;4.746;2022-12-07T10:08:32;6.70;99.90
24049;DHT22;12250;50.956;4.746;2022-12-07T10:10:59;6.60;99.90
24049;DHT22;12250;50.956;4.746;2022-12-07T10:13:41;6.60;99.90
24049;DHT22;12250;50.956;4.746;2022-12-07T10:16:38;6.80;99.90
24049;DHT22;12250;50.956;4.746;2022-12-07T10:19:28;7.20;99.90
24049;DHT22;12250;50.956;4.746;2022-12-07T10:22:13;7.70;99.90
24049;DHT22;12250;50.956;4.746;2022-12-07T10:24:40;7.90;99.90
24049;DHT22;12250;50.956;4.746;2022-12-07T10:29:48;8.20;99.90
24049;DHT22;12250;50.956;4.746;2022-12-07T10:34:40;8.60;99.90
24049;DHT22;12250;50.956;4.746;2022-12-07T10:37:26;8.80;99.90
24049;DHT22;12250;50.956;4.746;2022-12-07T10:39:57;9.00;99.90
24049;DHT22;12250;50.956;4.746;2022-12-07T10:42:26;9.10;99.90
24049;DHT22;12250;50.956;4.746;2022-12-07T10:48:08;9.30;99.90
24049;DHT22;12250;50.956;4.746;2022-12-07T10:53:58;9.20;99.90
24049;DHT22;12250;50.956;4.746;2022-12-07T11:05:11;9.30;99.90
24049;DHT22;12250;50.956;4.746;2022-12-07T11:10:32;9.50;99.90
24049;DHT22;12250;50.956;4.746;2022-12-07T11:18:44;9.60;99.90
24049;DHT22;12250;50.956;4.746;2022-12-07T11:24:14;9.60;99.90
24049;DHT22;12250;50.956;4.746;2022-12-07T11:37:55;9.20;99.90
24049;DHT22;12250;50.956;4.746;2022-12-07T11:40:36;9.20;99.90
24049;DHT22;12250;50.956;4.746;2022-12-07T11:46:07;9.40;99.90
24049;DHT22;12250;50.956;4.746;2022-12-07T11:51:18;9.50;99.90
24049;DHT22;12250;50.956;4.746;2022-12-07T11:53:50;9.60;99.90
24049;DHT22;12250;50.956;4.746;2022-12-07T11:56:20;9.80;99.90
24049;DHT22;12250;50.956;4.746;2022-12-07T12:02:16;10.10;99.90
24049;DHT22;12250;50.956;4.746;2022-12-07T12:07:22;9.80;99.90
24049;DHT22;12250;50.956;4.746;2022-12-07T12:09:56;9.70;99.90
24049;DHT22;12250;50.956;4.746;2022-12-07T12:15:33;9.90;99.90
24049;DHT22;12250;50.956;4.746;2022-12-07T12:20:50;9.90;99.90
24049;DHT22;12250;50.956;4.746;2022-12-07T12:25:51;10.00;99.90
24049;DHT22;12250;50.956;4.746;2022-12-07T12:33:53;9.90;99.90
24049;DHT22;12250;50.956;4.746;2022-12-07T12:46:52;10.40;99.90
24049;DHT22;12250;50.956;4.746;2022-12-07T12:52:00;10.60;99.90
24049;DHT22;12250;50.956;4.746;2022-12-07T12:54:31;10.40;99.90
24049;DHT22;12250;50.956;4.746;2022-12-07T12:59:29;10.00;99.90
24049;DHT22;12250;50.956;4.746;2022-12-07T13:04:58;9.80;99.90
24049;DHT22;12250;50.956;4.746;2022-12-07T13:20:55;9.30;99.90
24049;DHT22;12250;50.956;4.746;2022-12-07T13:26:36;9.20;99.90
24049;DHT22;12250;50.956;4.746;2022-12-07T13:29:09;9.10;99.90
24049;DHT22;12250;50.956;4.746;2022-12-07T13:31:41;9.00;99.90
24049;DHT22;12250;50.956;4.746;2022-12-07T13:34:37;8.90;99.90
24049;DHT22;12250;50.956;4.746;2022-12-07T13:37:27;8.70;99.90
24049;DHT22;12250;50.956;4.746;2022-12-07T13:40:01;8.30;99.90
24049;DHT22;12250;50.956;4.746;2022-12-07T13:42:37;8.00;99.90
24049;DHT22;12250;50.956;4.746;2022-12-07T13:51:02;7.50;99.90
24049;DHT22;12250;50.956;4.746;2022-12-07T13:53:28;7.50;99.90
24049;DHT22;12250;50.956;4.746;2022-12-07T13:55:57;7.60;99.90
24049;DHT22;12250;50.956;4.746;2022-12-07T13:58:24;7.70;99.90
24049;DHT22;12250;50.956;4.746;2022-12-07T14:00:49;7.80;99.90
24049;DHT22;12250;50.956;4.746;2022-12-07T14:05:43;8.00;99.90
24049;DHT22;12250;50.956;4.746;2022-12-07T14:13:35;8.10;99.90
24049;DHT22;12250;50.956;4.746;2022-12-07T14:16:05;8.10;99.90
24049;DHT22;12250;50.956;4.746;2022-12-07T14:18:43;8.00;99.90
24049;DHT22;12250;50.956;4.746;2022-12-07T14:23:35;7.80;99.90
24049;DHT22;12250;50.956;4.746;2022-12-07T14:26:08;7.80;99.90
24049;DHT22;12250;50.956;4.746;2022-12-07T14:28:37;7.80;99.90
24049;DHT22;12250;50.956;4.746;2022-12-07T14:31:07;7.70;99.90
24049;DHT22;12250;50.956;4.746;2022-12-07T14:33:33;7.80;99.90
24049;DHT22;12250;50.956;4.746;2022-12-07T14:35:59;7.70;99.90
24049;DHT22;12250;50.956;4.746;2022-12-07T14:38:25;7.60;99.90
24049;DHT22;12250;50.956;4.746;2022-12-07T14:40:53;7.50;99.90
24049;DHT22;12250;50.956;4.746;2022-12-07T14:43:19;7.40;99.90
24049;DHT22;12250;50.956;4.746;2022-12-07T14:45:45;7.40;99.90
24049;DHT22;12250;50.956;4.746;2022-12-07T14:48:13;7.20;99.90
24049;DHT22;12250;50.956;4.746;2022-12-07T14:50:45;7.10;99.90
24049;DHT22;12250;50.956;4.746;2022-12-07T14:53:27;6.90;99.90
24049;DHT22;12250;50.956;4.746;2022-12-07T14:55:54;6.90;99.90
24049;DHT22;12250;50.956;4.746;2022-12-07T14:58:20;6.80;99.90
24049;DHT22;12250;50.956;4.746;2022-12-07T15:00:46;6.70;99.90
24049;DHT22;12250;50.956;4.746;2022-12-07T15:03:13;6.70;99.90
24049;DHT22;12250;50.956;4.746;2022-12-07T15:05:39;6.70;99.90
24049;DHT22;12250;50.956;4.746;2022-12-07T15:08:06;6.70;99.90
24049;DHT22;12250;50.956;4.746;2022-12-07T15:10:33;6.60;99.90
24049;DHT22;12250;50.956;4.746;2022-12-07T15:13:00;6.60;99.90
24049;DHT22;12250;50.956;4.746;2022-12-07T15:15:45;6.60;99.90
24049;DHT22;12250;50.956;4.746;2022-12-07T15:18:11;6.50;99.90
24049;DHT22;12250;50.956;4.746;2022-12-07T15:20:37;6.50;99.90
24049;DHT22;12250;50.956;4.746;2022-12-07T15:23:03;6.40;99.90
24049;DHT22;12250;50.956;4.746;2022-12-07T15:25:28;6.20;99.90
24049;DHT22;12250;50.956;4.746;2022-12-07T15:27:54;6.10;99.90
24049;DHT22;12250;50.956;4.746;2022-12-07T15:30:19;5.90;99.90
24049;DHT22;12250;50.956;4.746;2022-12-07T15:32:49;5.80;99.90
24049;DHT22;12250;50.956;4.746;2022-12-07T15:35:15;5.70;99.90
24049;DHT22;12250;50.956;4.746;2022-12-07T15:37:41;5.60;99.90
24049;DHT22;12250;50.956;4.746;2022-12-07T15:40:07;5.50;99.90
24049;DHT22;12250;50.956;4.746;2022-12-07T15:42:32;5.50;99.90
24049;DHT22;12250;50.956;4.746;2022-12-07T15:44:58;5.40;99.90
24049;DHT22;12250;50.956;4.746;2022-12-07T15:47:34;5.30;99.90
24049;DHT22;12250;50.956;4.746;2022-12-07T15:50:02;5.20;99.90
24049;DHT22;12250;50.956;4.746;2022-12-07T15:52:29;5.20;99.90
24049;DHT22;12250;50.956;4.746;2022-12-07T15:54:55;5.20;99.90
24049;DHT22;12250;50.956;4.746;2022-12-07T15:57:20;5.10;99.90
24049;DHT22;12250;50.956;4.746;2022-12-07T15:59:46;5.10;99.90
24049;DHT22;12250;50.956;4.746;2022-12-07T16:02:12;5.10;99.90
24049;DHT22;12250;50.956;4.746;2022-12-07T16:04:38;5.10;99.90
24049;DHT22;12250;50.956;4.746;2022-12-07T16:07:04;5.10;99.90
24049;DHT22;12250;50.956;4.746;2022-12-07T16:09:30;5.10;99.90
24049;DHT22;12250;50.956;4.746;2022-12-07T16:11:55;5.10;99.90
24049;DHT22;12250;50.956;4.746;2022-12-07T16:14:21;5.10;99.90
24049;DHT22;12250;50.956;4.746;2022-12-07T16:16:47;5.20;99.90
24049;DHT22;12250;50.956;4.746;2022-12-07T16:19:13;5.20;99.90
24049;DHT22;12250;50.956;4.746;2022-12-07T16:21:39;5.20;99.90
24049;DHT22;12250;50.956;4.746;2022-12-07T16:24:05;5.20;99.90
24049;DHT22;12250;50.956;4.746;2022-12-07T16:26:31;5.20;99.90
24049;DHT22;12250;50.956;4.746;2022-12-07T16:28:57;5.30;99.90
24049;DHT22;12250;50.956;4.746;2022-12-07T16:31:24;5.30;99.90
24049;DHT22;12250;50.956;4.746;2022-12-07T16:33:53;5.30;99.90
24049;DHT22;12250;50.956;4.746;2022-12-07T16:36:20;5.30;99.90
24049;DHT22;12250;50.956;4.746;2022-12-07T16:38:47;5.40;99.90
24049;DHT22;12250;50.956;4.746;2022-12-07T16:41:13;5.40;99.90
24049;DHT22;12250;50.956;4.746;2022-12-07T16:43:39;5.40;99.90
24049;DHT22;12250;50.956;4.746;2022-12-07T16:46:05;5.40;99.90
24049;DHT22;12250;50.956;4.746;2022-12-07T16:48:31;5.40;99.90
24049;DHT22;12250;50.956;4.746;2022-12-07T16:51:03;5.40;99.90
24049;DHT22;12250;50.956;4.746;2022-12-07T16:53:29;5.40;99.90
24049;DHT22;12250;50.956;4.746;2022-12-07T16:55:54;5.40;99.90
24049;DHT22;12250;50.956;4.746;2022-12-07T16:58:20;5.40;99.90
24049;DHT22;12250;50.956;4.746;2022-12-07T17:00:46;5.40;99.90
24049;DHT22;12250;50.956;4.746;2022-12-07T17:03:12;5.50;99.90
24049;DHT22;12250;50.956;4.746;2022-12-07T17:05:39;5.60;99.90
24049;DHT22;12250;50.956;4.746;2022-12-07T17:08:05;5.60;99.90
24049;DHT22;12250;50.956;4.746;2022-12-07T17:10:33;5.60;99.90
24049;DHT22;12250;50.956;4.746;2022-12-07T17:12:59;5.70;99.90
24049;DHT22;12250;50.956;4.746;2022-12-07T17:15:24;5.70;99.90
24049;DHT22;12250;50.956;4.746;2022-12-07T17:17:55;5.80;99.90
24049;DHT22;12250;50.956;4.746;2022-12-07T17:20:22;5.70;99.90
24049;DHT22;12250;50.956;4.746;2022-12-07T17:22:48;5.80;99.90
24049;DHT22;12250;50.956;4.746;2022-12-07T17:25:14;5.80;99.90
24049;DHT22;12250;50.956;4.746;2022-12-07T17:27:40;5.80;99.90
24049;DHT22;12250;50.956;4.746;2022-12-07T17:30:06;5.80;99.90
24049;DHT22;12250;50.956;4.746;2022-12-07T17:32:32;5.80;99.90
24049;DHT22;12250;50.956;4.746;2022-12-07T17:34:58;5.80;99.90
24049;DHT22;12250;50.956;4.746;2022-12-07T17:37:25;5.90;99.90
24049;DHT22;12250;50.956;4.746;2022-12-07T17:39:52;5.90;99.90
24049;DHT22;12250;50.956;4.746;2022-12-07T17:42:19;5.80;99.90
24049;DHT22;12250;50.956;4.746;2022-12-07T17:45:07;5.80;99.90
24049;DHT22;12250;50.956;4.746;2022-12-07T17:47:33;5.90;99.90
24049;DHT22;12250;50.956;4.746;2022-12-07T17:49:59;5.90;99.90
24049;DHT22;12250;50.956;4.746;2022-12-07T17:52:24;5.80;99.90
24049;DHT22;12250;50.956;4.746;2022-12-07T17:55:09;5.80;99.90
24049;DHT22;12250;50.956;4.746;2022-12-07T17:57:34;5.70;99.90
24049;DHT22;12250;50.956;4.746;2022-12-07T18:00:00;5.70;99.90
24049;DHT22;12250;50.956;4.746;2022-12-07T18:02:26;5.60;99.90
24049;DHT22;12250;50.956;4.746;2022-12-07T18:04:51;5.60;99.90
24049;DHT22;12250;50.956;4.746;2022-12-07T18:07:17;5.60;99.90
24049;DHT22;12250;50.956;4.746;2022-12-07T18:09:43;5.60;99.90
24049;DHT22;12250;50.956;4.746;2022-12-07T18:12:09;5.60;99.90
24049;DHT22;12250;50.956;4.746;2022-12-07T18:14:34;5.60;99.90
24049;DHT22;12250;50.956;4.746;2022-12-07T18:17:01;5.60;99.90
24049;DHT22;12250;50.956;4.746;2022-12-07T18:19:26;5.60;99.90
24049;DHT22;12250;50.956;4.746;2022-12-07T18:21:52;5.60;99.90
24049;DHT22;12250;50.956;4.746;2022-12-07T18:24:18;5.60;99.90
24049;DHT22;12250;50.956;4.746;2022-12-07T18:26:44;5.50;99.90
24049;DHT22;12250;50.956;4.746;2022-12-07T18:29:14;5.50;99.90
24049;DHT22;12250;50.956;4.746;2022-12-07T18:31:39;5.50;99.90